Time;durP1;ratioP1;P1;durP2;ratioP2;P2;SDS_P1;SDS_P2;PMS_P1;PMS_P2;Temp;Humidity;BMP_temperature;BMP_pressure;BME280_temperature;BME280_humidity;BME280_pressure;Samples;Min_cycle;Max_cycle;Signal;HPM_P1;HPM_P2
2021/11/09 00:00:51;;;;;;;7.53;3.33;;;5.80;70.00;;;;;;2321000;54;21477;-69
2021/11/09 00:03:18;;;;;;;8.32;4.03;;;5.80;70.00;;;;;;2566709;53;20929;-69
2021/11/09 00:05:59;;;;;;;6.68;3.50;;;5.80;70.10;;;;;;2339219;54;21697;-69
2021/11/09 00:08:30;;;;;;;9.82;4.37;;;5.80;70.10;;;;;;2320534;54;20992;-69
2021/11/09 00:10:56;;;;;;;8.23;4.00;;;5.70;69.90;;;;;;2322481;54;20977;-69
2021/11/09 00:13:22;;;;;;;7.12;4.05;;;5.70;69.90;;;;;;2317888;54;20973;-69
2021/11/09 00:15:49;;;;;;;9.45;3.65;;;5.70;69.90;;;;;;2544170;53;21016;-69
2021/11/09 00:18:16;;;;;;;6.95;3.67;;;5.70;70.00;;;;;;2326383;54;20949;-70
2021/11/09 00:20:43;;;;;;;10.20;3.90;;;5.60;70.00;;;;;;2323690;54;21041;-69
2021/11/09 00:23:22;;;;;;;6.87;3.40;;;5.60;70.00;;;;;;2558990;53;20959;-69
2021/11/09 00:25:51;;;;;;;6.37;3.42;;;5.60;70.00;;;;;;2313251;54;21017;-69
2021/11/09 00:28:20;;;;;;;6.25;3.10;;;5.50;70.00;;;;;;2553540;53;20973;-70
2021/11/09 00:32:09;;;;;;;6.07;3.30;;;5.60;70.00;;;;;;2339831;54;20937;-69
2021/11/09 00:34:40;;;;;;;6.37;3.10;;;5.20;69.60;;;;;;2327667;54;20969;-69
2021/11/09 00:37:06;;;;;;;6.00;3.30;;;5.50;70.00;;;;;;2312222;54;21007;-69
2021/11/09 00:39:33;;;;;;;7.82;3.72;;;5.50;70.00;;;;;;2561545;53;21016;-70
2021/11/09 00:42:00;;;;;;;7.30;3.72;;;5.40;70.00;;;;;;2329718;53;21443;-69
2021/11/09 00:44:26;;;;;;;6.78;2.78;;;5.40;69.90;;;;;;2321211;54;21024;-68
2021/11/09 00:46:53;;;;;;;6.68;3.78;;;5.40;69.90;;;;;;2553483;53;21106;-69
2021/11/09 00:49:22;;;;;;;5.55;2.70;;;5.40;70.00;;;;;;2319811;54;21096;-69
2021/11/09 00:51:50;;;;;;;5.87;3.05;;;5.30;69.80;;;;;;2317969;54;21029;-69
2021/11/09 00:54:17;;;;;;;6.68;3.22;;;5.30;69.80;;;;;;2552511;53;21545;-69
2021/11/09 00:56:43;;;;;;;6.35;3.42;;;5.30;69.80;;;;;;2319889;54;21004;-69
2021/11/09 00:59:10;;;;;;;8.70;3.15;;;5.30;69.80;;;;;;2322864;54;20996;-68
2021/11/09 01:01:40;;;;;;;7.20;3.37;;;5.20;69.80;;;;;;2321843;54;21012;-70
2021/11/09 01:04:06;;;;;;;8.27;3.50;;;5.20;69.80;;;;;;2550812;53;20953;-68
2021/11/09 01:06:33;;;;;;;7.70;3.50;;;5.20;69.90;;;;;;2322395;54;20929;-68
2021/11/09 01:08:59;;;;;;;6.28;3.22;;;5.20;69.90;;;;;;2323344;54;21819;-69
2021/11/09 01:11:26;;;;;;;8.70;3.72;;;5.20;70.00;;;;;;2556971;53;20949;-69
2021/11/09 01:13:52;;;;;;;6.57;3.45;;;5.10;69.90;;;;;;2318932;54;21049;-68
2021/11/09 01:16:21;;;;;;;7.22;3.35;;;5.10;70.00;;;;;;2319904;54;21336;-69
2021/11/09 01:18:51;;;;;;;7.18;3.62;;;5.10;70.00;;;;;;2318817;54;21500;-70
2021/11/09 01:21:19;;;;;;;5.95;3.00;;;5.10;70.00;;;;;;2323770;54;20953;-69
2021/11/09 01:23:46;;;;;;;6.68;2.90;;;5.10;70.20;;;;;;2314554;54;21141;-69
2021/11/09 01:26:22;;;;;;;7.90;3.10;;;5.10;70.30;;;;;;2555669;53;21438;-69
2021/11/09 01:28:49;;;;;;;5.55;3.12;;;5.10;70.10;;;;;;2316697;54;20985;-69
2021/11/09 01:31:18;;;;;;;7.28;2.83;;;5.10;70.30;;;;;;2321982;54;21524;-70
2021/11/09 01:33:45;;;;;;;7.28;3.40;;;5.00;70.20;;;;;;2336321;54;21533;-68
2021/11/09 01:36:14;;;;;;;4.85;2.78;;;5.00;70.10;;;;;;2302140;54;21824;-69
2021/11/09 01:38:40;;;;;;;5.90;2.97;;;5.00;70.10;;;;;;2319692;54;20973;-69
2021/11/09 01:41:10;;;;;;;6.07;3.08;;;5.00;70.10;;;;;;2324164;54;20973;-69
2021/11/09 01:43:37;;;;;;;5.07;2.80;;;5.00;70.10;;;;;;2306914;54;20952;-69
2021/11/09 01:46:04;;;;;;;4.90;2.58;;;5.00;70.00;;;;;;2552828;53;20993;-69
2021/11/09 01:48:30;;;;;;;6.12;2.65;;;4.90;70.00;;;;;;2316351;54;21100;-68
2021/11/09 01:50:59;;;;;;;5.72;2.70;;;4.90;69.90;;;;;;2297820;54;20953;-69
2021/11/09 01:53:27;;;;;;;5.75;2.97;;;4.90;69.90;;;;;;2554884;53;21088;-68
2021/11/09 01:55:54;;;;;;;6.10;3.05;;;4.90;69.90;;;;;;2559253;53;20942;-70
2021/11/09 01:58:20;;;;;;;5.90;2.80;;;4.90;70.00;;;;;;2320337;54;20969;-69
2021/11/09 02:00:50;;;;;;;6.47;2.95;;;4.80;69.90;;;;;;2551532;53;21038;-70
2021/11/09 02:03:17;;;;;;;4.50;2.33;;;4.80;70.10;;;;;;2553846;53;21390;-69
2021/11/09 02:05:45;;;;;;;6.60;2.40;;;4.80;70.10;;;;;;2554522;53;20988;-69
2021/11/09 02:08:12;;;;;;;5.62;2.58;;;4.80;70.10;;;;;;2552515;53;20968;-68
2021/11/09 02:10:40;;;;;;;6.22;3.00;;;4.80;70.20;;;;;;2328443;54;21014;-69
2021/11/09 02:13:07;;;;;;;5.85;2.80;;;4.80;70.30;;;;;;2548709;53;20981;-68
2021/11/09 02:15:37;;;;;;;6.62;2.80;;;4.80;70.30;;;;;;2323394;54;21505;-69
2021/11/09 02:18:05;;;;;;;6.07;3.12;;;4.80;70.30;;;;;;2555226;53;21834;-68
2021/11/09 02:20:33;;;;;;;6.25;2.90;;;4.80;70.30;;;;;;2554591;53;21140;-68
2021/11/09 02:22:59;;;;;;;5.80;2.90;;;4.80;70.30;;;;;;2525381;53;20977;-69
2021/11/09 02:25:27;;;;;;;6.15;3.05;;;4.70;70.30;;;;;;2322283;54;20956;-69
2021/11/09 02:27:54;;;;;;;5.40;2.70;;;4.70;70.30;;;;;;2554675;53;21013;-68
2021/11/09 02:30:27;;;;;;;5.22;2.78;;;4.70;70.30;;;;;;2307273;53;21552;-70
2021/11/09 02:32:54;;;;;;;5.55;2.30;;;4.70;70.30;;;;;;2550874;53;20954;-69
2021/11/09 02:35:22;;;;;;;5.32;2.50;;;4.70;70.20;;;;;;2322545;54;20976;-68
2021/11/09 02:37:55;;;;;;;5.68;2.47;;;4.70;70.20;;;;;;2324492;54;21866;-68
2021/11/09 02:40:22;;;;;;;4.93;2.75;;;4.70;70.10;;;;;;2301626;54;21124;-69
2021/11/09 02:42:51;;;;;;;6.70;2.62;;;4.70;70.10;;;;;;2550766;53;21508;-69
2021/11/09 02:45:26;;;;;;;7.07;3.00;;;4.70;70.10;;;;;;2319972;54;20986;-68
2021/11/09 02:48:01;;;;;;;8.48;3.20;;;4.70;70.10;;;;;;2320674;54;20997;-69
2021/11/09 02:50:43;;;;;;;5.00;2.70;;;4.60;70.00;;;;;;2319600;54;21887;-69
2021/11/09 02:53:18;;;;;;;4.70;2.37;;;4.60;70.10;;;;;;2553110;53;21025;-68
2021/11/09 02:55:50;;;;;;;7.20;3.00;;;4.60;70.10;;;;;;2554299;53;20981;-69
2021/11/09 03:04:23;;;;;;;6.70;2.90;;;4.60;70.00;;;;;;2565310;53;20989;-69
2021/11/09 03:11:07;;;;;;;6.00;2.53;;;4.50;69.90;;;;;;2330369;54;21059;-68
2021/11/09 03:13:51;;;;;;;6.35;2.85;;;4.50;69.80;;;;;;2551124;53;20961;-68
2021/11/09 03:16:34;;;;;;;6.45;2.37;;;4.50;70.00;;;;;;2319977;54;20980;-68
2021/11/09 03:19:55;;;;;;;6.05;2.70;;;4.50;70.00;;;;;;2553050;53;20985;-70
2021/11/09 03:45:50;;;;;;;7.20;2.60;;;4.30;69.90;;;;;;2562997;53;21553;-68
2021/11/09 03:48:34;;;;;;;6.68;3.08;;;4.30;69.80;;;;;;2553532;53;20969;-68
2021/11/09 03:51:08;;;;;;;6.18;3.00;;;4.30;69.90;;;;;;2547884;53;20960;-68
2021/11/09 03:53:45;;;;;;;4.85;2.10;;;4.20;69.90;;;;;;2570319;52;20988;-68
2021/11/09 03:56:26;;;;;;;6.07;2.40;;;4.20;69.90;;;;;;2554488;52;20997;-69
2021/11/09 04:30:04;;;;;;;5.35;2.17;;;4.00;69.60;;;;;;2449882;55;21032;-70
2021/11/09 05:10:13;;;;;;;7.00;2.33;;;3.80;69.70;;;;;;2559934;53;21017;-69
2021/11/09 05:12:39;;;;;;;8.18;3.10;;;3.80;69.80;;;;;;2556376;53;21391;-68
2021/11/09 05:15:06;;;;;;;8.00;2.95;;;3.80;70.00;;;;;;2316931;54;21111;-69
2021/11/09 05:17:32;;;;;;;8.32;3.37;;;3.70;70.00;;;;;;2553777;53;21947;-69
2021/11/09 05:19:59;;;;;;;9.57;3.85;;;3.70;70.10;;;;;;2323233;54;21042;-68
2021/11/09 05:22:29;;;;;;;6.20;3.15;;;3.80;70.10;;;;;;2555315;53;21009;-69
2021/11/09 05:24:56;;;;;;;5.57;2.95;;;3.70;70.10;;;;;;2313359;54;20980;-69
2021/11/09 05:27:26;;;;;;;5.80;3.08;;;3.70;70.10;;;;;;2540095;53;20957;-69
2021/11/09 05:29:53;;;;;;;5.62;2.47;;;3.70;70.10;;;;;;2321154;54;21004;-68
2021/11/09 05:32:20;;;;;;;9.50;3.40;;;3.70;70.10;;;;;;2319049;54;20949;-69
2021/11/09 05:34:49;;;;;;;10.70;3.58;;;3.70;70.10;;;;;;2317466;54;20985;-69
2021/11/09 05:37:19;;;;;;;8.07;3.10;;;3.70;70.20;;;;;;2553414;53;20977;-69
2021/11/09 05:39:52;;;;;;;8.95;4.25;;;3.70;70.30;;;;;;2321149;54;20953;-68
2021/11/09 05:42:20;;;;;;;8.98;3.58;;;3.70;70.40;;;;;;2569673;53;21502;-69
2021/11/09 05:44:47;;;;;;;6.80;3.60;;;3.70;70.40;;;;;;2317585;54;20941;-68
2021/11/09 05:47:13;;;;;;;5.90;3.53;;;3.70;70.40;;;;;;2323512;54;22025;-69
2021/11/09 05:49:51;;;;;;;6.53;3.60;;;3.70;70.40;;;;;;2553293;53;20989;-69
2021/11/09 05:52:17;;;;;;;9.98;4.20;;;3.70;70.40;;;;;;2551333;53;21064;-69
2021/11/09 05:54:45;;;;;;;11.38;3.72;;;3.70;70.40;;;;;;2320847;54;21036;-69
2021/11/09 05:57:11;;;;;;;9.93;4.22;;;3.70;70.70;;;;;;2324582;54;20997;-69
2021/11/09 05:59:38;;;;;;;8.98;4.50;;;3.70;70.20;;;;;;2560548;53;20967;-69
2021/11/09 06:02:05;;;;;;;12.07;6.35;;;3.70;70.10;;;;;;2568495;53;21833;-68
2021/11/09 06:04:31;;;;;;;15.43;7.22;;;3.70;70.10;;;;;;2324880;54;21807;-68
2021/11/09 06:06:58;;;;;;;15.90;7.00;;;3.70;70.10;;;;;;2547058;53;21030;-69
2021/11/09 06:09:25;;;;;;;14.30;7.53;;;3.70;70.00;;;;;;2540079;53;20992;-69
2021/11/09 06:11:52;;;;;;;14.32;7.20;;;3.70;70.00;;;;;;2551644;53;20957;-68
2021/11/09 06:14:18;;;;;;;12.13;6.20;;;3.70;70.00;;;;;;2321135;54;20921;-69
2021/11/09 06:16:45;;;;;;;12.85;6.15;;;3.80;70.10;;;;;;2540864;53;20953;-69
2021/11/09 06:19:11;;;;;;;11.23;5.75;;;3.70;69.90;;;;;;2323581;54;21012;-69
2021/11/09 06:21:38;;;;;;;6.70;3.83;;;3.70;69.90;;;;;;2550760;53;21103;-69
2021/11/09 06:24:05;;;;;;;9.23;4.78;;;3.70;70.00;;;;;;2323708;54;21108;-69
2021/11/09 06:26:32;;;;;;;8.73;4.65;;;3.70;70.10;;;;;;2554122;53;20940;-69
2021/11/09 06:29:01;;;;;;;10.45;4.60;;;3.70;70.00;;;;;;2319461;54;21783;-69
2021/11/09 06:31:28;;;;;;;11.98;5.28;;;3.60;69.90;;;;;;2322759;54;21029;-69
2021/11/09 06:33:55;;;;;;;9.57;4.85;;;3.60;69.90;;;;;;2318761;54;21068;-69
2021/11/09 06:36:22;;;;;;;8.25;4.22;;;3.60;69.90;;;;;;2567643;53;21457;-68
2021/11/09 06:38:49;;;;;;;10.88;5.55;;;3.60;69.90;;;;;;2553585;53;20957;-69
2021/11/09 06:41:15;;;;;;;10.98;5.10;;;3.60;70.00;;;;;;2552004;53;21005;-68
2021/11/09 06:43:42;;;;;;;10.68;5.00;;;3.60;70.00;;;;;;2321086;54;20948;-68
2021/11/09 06:46:09;;;;;;;7.78;4.30;;;3.60;70.00;;;;;;2553933;53;21088;-69
2021/11/09 06:48:37;;;;;;;11.90;5.65;;;3.60;70.10;;;;;;2321618;54;20969;-69
2021/11/09 06:51:06;;;;;;;12.27;5.25;;;3.60;70.10;;;;;;2549628;53;21333;-69
2021/11/09 06:53:32;;;;;;;9.02;5.18;;;3.60;70.10;;;;;;2319195;54;21100;-69
2021/11/09 06:55:59;;;;;;;9.70;4.90;;;3.60;70.20;;;;;;2552291;53;21977;-69
2021/11/09 06:58:28;;;;;;;8.98;4.50;;;3.60;70.20;;;;;;2322120;54;20961;-69
2021/11/09 07:00:54;;;;;;;7.90;3.92;;;3.60;70.20;;;;;;2526845;53;20996;-69
2021/11/09 07:03:21;;;;;;;10.23;4.50;;;3.60;70.10;;;;;;2318341;54;20973;-69
2021/11/09 07:05:47;;;;;;;8.45;4.03;;;3.60;70.20;;;;;;2566705;53;21056;-69
2021/11/09 07:08:15;;;;;;;9.18;4.18;;;3.60;70.30;;;;;;2314856;54;21044;-69
2021/11/09 07:10:44;;;;;;;10.35;4.45;;;3.60;70.40;;;;;;2551716;53;21025;-70
2021/11/09 07:13:11;;;;;;;9.27;3.87;;;3.60;70.50;;;;;;2318639;54;20965;-69
2021/11/09 07:15:37;;;;;;;10.80;4.60;;;3.60;70.60;;;;;;2551860;53;20856;-69
2021/11/09 07:18:04;;;;;;;10.45;4.60;;;3.60;70.60;;;;;;2321981;54;21080;-69
2021/11/09 07:20:31;;;;;;;11.55;5.55;;;3.70;70.80;;;;;;2553082;53;20933;-68
2021/11/09 07:23:00;;;;;;;11.95;5.47;;;3.70;70.80;;;;;;2525469;53;21126;-69
2021/11/09 07:25:27;;;;;;;12.52;6.82;;;3.70;70.80;;;;;;2575173;53;21501;-68
2021/11/09 07:27:54;;;;;;;11.77;6.82;;;3.70;70.80;;;;;;2327603;54;21013;-69
2021/11/09 07:30:30;;;;;;;10.40;5.55;;;3.70;70.90;;;;;;2551598;53;21163;-69
2021/11/09 07:32:58;;;;;;;11.02;6.00;;;3.70;70.90;;;;;;2300142;54;20938;-69
2021/11/09 07:35:24;;;;;;;15.10;6.75;;;3.80;71.10;;;;;;2551483;53;20965;-69
2021/11/09 07:37:51;;;;;;;11.32;6.07;;;3.80;71.10;;;;;;2329426;54;21618;-70
2021/11/09 07:40:18;;;;;;;8.60;5.35;;;3.80;71.80;;;;;;2562829;53;20965;-69
2021/11/09 07:42:50;;;;;;;8.18;4.97;;;3.80;71.10;;;;;;2551727;53;20917;-68
2021/11/09 07:45:21;;;;;;;7.78;4.75;;;3.80;71.20;;;;;;2554457;53;20961;-68
2021/11/09 07:47:47;;;;;;;11.50;5.57;;;3.90;71.30;;;;;;2315063;54;20956;-68
2021/11/09 07:50:14;;;;;;;9.65;5.57;;;3.90;71.40;;;;;;2553668;53;20979;-69
2021/11/09 07:52:44;;;;;;;11.25;6.10;;;3.90;72.20;;;;;;2321921;54;20997;-68
2021/11/09 07:55:15;;;;;;;9.90;5.72;;;4.00;71.60;;;;;;2555880;53;20964;-68
2021/11/09 07:57:45;;;;;;;9.07;5.50;;;4.00;71.70;;;;;;2303064;54;20928;-68
2021/11/09 08:00:26;;;;;;;20.33;8.30;;;4.00;71.70;;;;;;2322069;54;21580;-69
2021/11/09 08:03:08;;;;;;;12.07;7.37;;;4.10;72.00;;;;;;2312754;54;20980;-68
2021/11/09 08:06:08;;;;;;;13.77;7.47;;;4.10;72.10;;;;;;2556008;53;21002;-69
2021/11/09 08:08:40;;;;;;;10.57;6.18;;;4.20;72.20;;;;;;2322958;54;21713;-68
2021/11/09 08:11:07;;;;;;;12.45;6.93;;;4.30;72.40;;;;;;2327650;54;21020;-69
2021/11/09 08:13:34;;;;;;;12.40;6.57;;;4.30;72.40;;;;;;2321243;54;21017;-69
2021/11/09 08:16:00;;;;;;;10.85;6.55;;;4.40;72.60;;;;;;2304616;55;20909;-68
2021/11/09 08:18:27;;;;;;;10.23;5.80;;;4.40;72.80;;;;;;2554520;53;21045;-68
2021/11/09 08:21:00;;;;;;;12.80;6.57;;;4.40;72.90;;;;;;2328042;54;21521;-69
2021/11/09 08:23:27;;;;;;;12.68;6.25;;;4.50;73.10;;;;;;2325031;54;21053;-68
2021/11/09 08:25:53;;;;;;;14.32;6.78;;;4.60;73.20;;;;;;2334901;54;21001;-68
2021/11/09 08:28:20;;;;;;;11.75;6.37;;;4.70;73.40;;;;;;2342795;54;20985;-69
2021/11/09 08:30:50;;;;;;;12.60;6.03;;;4.70;73.40;;;;;;2321500;54;20949;-69
2021/11/09 08:33:18;;;;;;;10.50;5.82;;;4.80;73.60;;;;;;2323792;54;21012;-67
2021/11/09 08:35:45;;;;;;;11.40;6.05;;;4.80;73.60;;;;;;2330755;54;20988;-68
2021/11/09 08:38:15;;;;;;;12.30;6.70;;;4.90;73.80;;;;;;2555606;53;20957;-68
2021/11/09 08:40:43;;;;;;;13.70;6.82;;;5.00;74.00;;;;;;2341559;54;20968;-69
2021/11/09 08:43:16;;;;;;;14.13;5.75;;;5.00;74.10;;;;;;2588927;53;20921;-68
2021/11/09 08:45:57;;;;;;;12.13;5.90;;;5.10;74.20;;;;;;2574368;53;21727;-68
2021/11/09 08:48:26;;;;;;;7.65;4.68;;;5.20;74.40;;;;;;2555480;53;20968;-69
2021/11/09 08:50:54;;;;;;;9.63;4.78;;;5.30;74.70;;;;;;2317707;54;21510;-68
2021/11/09 08:53:34;;;;;;;8.82;4.85;;;5.40;74.90;;;;;;2340598;54;20965;-70
2021/11/09 09:06:00;;;;;;;5.50;3.50;;;5.90;76.10;;;;;;2588188;53;20988;-68
2021/11/09 09:08:26;;;;;;;9.35;4.32;;;6.00;76.30;;;;;;2321928;54;20941;-68
2021/11/09 09:10:53;;;;;;;8.25;4.25;;;6.20;76.70;;;;;;2332433;54;20981;-68
2021/11/09 09:13:20;;;;;;;7.12;3.50;;;6.30;77.20;;;;;;2568369;53;21001;-68
2021/11/09 09:15:46;;;;;;;8.13;4.65;;;6.50;78.30;;;;;;2322421;55;21069;-68
2021/11/09 09:18:22;;;;;;;8.35;4.82;;;6.70;79.30;;;;;;2345109;54;21470;-69
2021/11/09 09:20:53;;;;;;;8.75;5.53;;;7.00;80.00;;;;;;2328694;54;20961;-69
2021/11/09 09:23:28;;;;;;;14.13;8.52;;;7.30;80.20;;;;;;2317534;55;21021;-69
2021/11/09 09:59:59;;;;;;;9.27;4.25;;;9.20;79.70;;;;;;2342568;54;20933;-70
2021/11/09 10:02:28;;;;;;;7.25;4.55;;;9.80;80.80;;;;;;2332537;54;20965;-70
2021/11/09 10:05:03;;;;;;;12.25;6.10;;;10.00;79.20;;;;;;2324330;54;20968;-70
2021/11/09 10:07:34;;;;;;;9.70;5.53;;;10.20;78.60;;;;;;2322486;54;21057;-69
2021/11/09 10:10:29;;;;;;;9.77;5.07;;;10.40;78.20;;;;;;2341927;54;21691;-70
2021/11/09 10:12:57;;;;;;;9.15;5.30;;;10.60;76.80;;;;;;2343473;54;20993;-70
2021/11/09 10:15:27;;;;;;;9.25;5.30;;;10.70;77.50;;;;;;2307631;55;20953;-69
2021/11/09 10:17:56;;;;;;;10.20;5.20;;;10.80;77.40;;;;;;2560914;53;21945;-70
2021/11/09 10:20:25;;;;;;;10.32;5.05;;;10.90;77.20;;;;;;2342692;54;20985;-70
2021/11/09 10:23:03;;;;;;;8.20;4.95;;;11.00;77.00;;;;;;2322014;54;20957;-70
2021/11/09 10:25:29;;;;;;;8.23;4.30;;;11.10;76.30;;;;;;2340715;54;21089;-70
2021/11/09 10:28:06;;;;;;;9.18;4.85;;;11.20;76.60;;;;;;2342510;54;21052;-70
2021/11/09 10:30:36;;;;;;;9.48;4.97;;;11.30;76.00;;;;;;2342695;54;20961;-70
2021/11/09 10:33:03;;;;;;;7.20;4.32;;;11.40;76.20;;;;;;2326769;54;21845;-70
2021/11/09 10:35:30;;;;;;;9.05;5.40;;;11.40;76.20;;;;;;2337803;54;21041;-71
2021/11/09 10:37:58;;;;;;;8.90;5.00;;;11.50;75.90;;;;;;2342846;54;20977;-70
2021/11/09 10:40:28;;;;;;;7.30;4.87;;;11.60;75.90;;;;;;2324947;54;20977;-70
2021/11/09 10:42:59;;;;;;;9.80;5.07;;;11.60;75.60;;;;;;2342216;54;20989;-70
2021/11/09 10:45:29;;;;;;;8.55;4.65;;;11.70;75.50;;;;;;2577437;53;21600;-70
2021/11/09 10:47:58;;;;;;;7.72;4.82;;;11.70;75.20;;;;;;2318381;54;21011;-71
2021/11/09 10:50:34;;;;;;;7.25;4.35;;;11.80;75.30;;;;;;2335945;54;20893;-70
2021/11/09 10:53:33;;;;;;;7.12;4.57;;;11.80;75.30;;;;;;2322467;55;20968;-70
2021/11/09 10:56:33;;;;;;;8.30;4.53;;;11.90;76.00;;;;;;2305607;55;20933;-70
2021/11/09 10:59:11;;;;;;;8.77;4.60;;;12.00;76.10;;;;;;2324115;54;20953;-70
2021/11/09 11:04:36;;;;;;;6.97;4.55;;;12.30;76.40;;;;;;2318306;54;21005;-70
2021/11/09 11:07:04;;;;;;;6.25;3.70;;;12.30;75.10;;;;;;2549078;53;21000;-71
2021/11/09 11:09:31;;;;;;;8.32;4.50;;;12.40;75.90;;;;;;2322225;54;20968;-70
2021/11/09 11:12:03;;;;;;;8.00;4.37;;;12.50;75.90;;;;;;2341573;54;20921;-70
2021/11/09 11:14:31;;;;;;;9.57;4.37;;;12.50;75.70;;;;;;2589177;53;20957;-70
2021/11/09 11:17:00;;;;;;;9.13;4.78;;;12.60;75.50;;;;;;2342339;54;21710;-70
2021/11/09 11:19:28;;;;;;;7.80;4.12;;;12.60;75.30;;;;;;2329561;54;20969;-70
2021/11/09 11:21:55;;;;;;;10.23;4.85;;;12.60;75.30;;;;;;2323567;54;20953;-70
2021/11/09 11:24:21;;;;;;;8.77;4.93;;;12.70;75.20;;;;;;2562088;53;21008;-70
2021/11/09 11:26:51;;;;;;;7.18;3.90;;;12.80;75.20;;;;;;2567938;53;20953;-71
2021/11/09 11:29:26;;;;;;;7.35;4.12;;;12.80;75.10;;;;;;2345473;54;20917;-71
2021/11/09 11:31:53;;;;;;;6.22;3.87;;;12.80;74.60;;;;;;2342336;54;21390;-71
2021/11/09 11:34:23;;;;;;;7.03;4.05;;;12.90;75.10;;;;;;2328902;54;21468;-71
2021/11/09 11:36:50;;;;;;;8.80;4.47;;;12.90;74.80;;;;;;2581487;53;21506;-71
2021/11/09 11:39:17;;;;;;;8.40;4.47;;;12.90;75.10;;;;;;2586533;53;21025;-70
2021/11/09 11:41:45;;;;;;;7.22;3.92;;;13.00;75.20;;;;;;2335445;54;20921;-71
2021/11/09 11:44:13;;;;;;;8.98;4.40;;;13.00;75.20;;;;;;2316444;54;21045;-70
2021/11/09 11:46:43;;;;;;;8.80;3.78;;;13.10;75.30;;;;;;2334878;54;21029;-71
2021/11/09 11:49:14;;;;;;;6.97;3.55;;;13.20;75.20;;;;;;2342346;54;20999;-71
2021/11/09 11:53:12;;;;;;;8.60;4.07;;;13.20;75.50;;;;;;2588708;53;21048;-71
2021/11/09 11:55:41;;;;;;;7.32;3.50;;;13.30;73.80;;;;;;2342287;54;21429;-70
2021/11/09 11:58:13;;;;;;;8.75;4.12;;;13.40;76.10;;;;;;2588127;53;21394;-71
2021/11/09 12:00:43;;;;;;;;;;;13.40;75.50;;;;;;2346107;54;20992;-71
2021/11/09 12:04:47;;;;;;;9.57;3.17;;;13.60;74.10;;;;;;2341798;54;20110;-71
2021/11/09 12:07:18;;;;;;;4.87;2.53;;;13.60;74.00;;;;;;2341331;54;20944;-72
2021/11/09 12:09:46;;;;;;;5.62;2.72;;;13.70;75.70;;;;;;2342242;54;21055;-71
2021/11/09 12:12:58;;;;;;;6.22;3.15;;;13.70;75.40;;;;;;2570614;53;21025;-71
2021/11/09 12:15:44;;;;;;;5.95;3.20;;;13.80;74.10;;;;;;2316750;55;20933;-71
2021/11/09 12:24:59;;;;;;;6.07;2.78;;;13.90;74.90;;;;;;2342924;54;20984;-71
2021/11/09 12:28:04;;;;;;;4.20;2.30;;;14.20;74.70;;;;;;2559886;53;20917;-71
2021/11/09 12:30:53;;;;;;;3.85;2.20;;;14.30;74.60;;;;;;2342356;54;21009;-71
2021/11/09 12:33:27;;;;;;;5.57;3.17;;;14.40;74.90;;;;;;2572352;53;20863;-71
2021/11/09 12:36:22;;;;;;;6.57;3.47;;;14.50;76.00;;;;;;2342330;54;21831;-72
2021/11/09 12:38:53;;;;;;;5.78;3.30;;;14.60;75.40;;;;;;2341911;54;21441;-71
2021/11/09 12:41:32;;;;;;;5.25;2.85;;;14.70;76.10;;;;;;2342518;54;21473;-71
2021/11/09 12:44:01;;;;;;;7.53;3.35;;;14.80;75.00;;;;;;2322934;55;20965;-71
2021/11/09 12:46:35;;;;;;;7.55;3.60;;;14.90;75.90;;;;;;2304681;54;21053;-71
2021/11/09 12:49:13;;;;;;;7.60;3.42;;;15.00;76.00;;;;;;2589367;53;20933;-71
2021/11/09 12:51:41;;;;;;;5.22;2.90;;;15.10;76.40;;;;;;2342824;54;20968;-71
2021/11/09 12:54:10;;;;;;;6.37;3.12;;;15.30;76.90;;;;;;2342859;54;21004;-71
2021/11/09 12:56:38;;;;;;;6.43;3.42;;;15.50;77.00;;;;;;2325944;54;21059;-72
2021/11/09 13:00:08;;;;;;;7.82;3.70;;;15.70;76.60;;;;;;2556254;53;21435;-72
2021/11/09 13:02:40;;;;;;;6.12;2.75;;;15.80;76.10;;;;;;2343728;54;20985;-71
2021/11/09 13:05:13;;;;;;;6.30;3.10;;;16.00;75.90;;;;;;2343113;54;20984;-72
2021/11/09 13:07:46;;;;;;;5.40;3.00;;;16.10;75.50;;;;;;2342632;54;21504;-72
2021/11/09 13:10:19;;;;;;;4.53;2.08;;;16.20;75.50;;;;;;2587744;53;21012;-72
2021/11/09 13:12:47;;;;;;;5.40;2.17;;;16.40;75.40;;;;;;2322815;54;20997;-72
2021/11/09 13:15:14;;;;;;;3.95;1.73;;;16.40;75.60;;;;;;2587264;53;20942;-69
2021/11/09 13:17:46;;;;;;;4.87;1.50;;;16.60;75.70;;;;;;2322024;54;20941;-70
2021/11/09 13:20:34;;;;;;;6.80;2.00;;;16.70;75.10;;;;;;2589545;53;20993;-69
2021/11/09 13:23:12;;;;;;;4.47;2.10;;;16.80;75.20;;;;;;2323027;55;20954;-69
2021/11/09 13:26:02;;;;;;;3.92;1.70;;;16.90;74.30;;;;;;2580891;53;21045;-72
2021/11/09 13:28:35;;;;;;;5.45;2.03;;;16.90;71.70;;;;;;2330299;54;20925;-71
2021/11/09 13:31:10;;;;;;;3.37;1.48;;;17.00;73.80;;;;;;2560642;53;21024;-72
2021/11/09 13:33:42;;;;;;;4.00;1.70;;;17.10;72.50;;;;;;2588844;53;21398;-72
2021/11/09 13:36:10;;;;;;;6.17;1.90;;;17.10;73.80;;;;;;2343930;54;20980;-71
2021/11/09 13:38:40;;;;;;;5.93;1.75;;;17.10;74.60;;;;;;2319308;54;21555;-71
2021/11/09 13:41:21;;;;;;;3.85;1.83;;;17.20;73.20;;;;;;2338100;54;20961;-72
2021/11/09 13:44:02;;;;;;;5.32;1.95;;;17.20;71.40;;;;;;2328735;54;20909;-72
2021/11/09 13:46:32;;;;;;;3.55;1.50;;;17.30;71.70;;;;;;2341585;54;20949;-71
2021/11/09 13:49:04;;;;;;;4.35;1.65;;;17.20;72.00;;;;;;2324797;54;21026;-72
2021/11/09 13:51:37;;;;;;;6.47;1.67;;;17.20;71.50;;;;;;2585832;53;20922;-71
2021/11/09 13:54:08;;;;;;;4.05;1.87;;;17.30;71.70;;;;;;2315755;54;21044;-72
2021/11/09 13:56:34;;;;;;;4.65;1.65;;;17.30;72.00;;;;;;2528518;53;20961;-71
2021/11/09 13:59:06;;;;;;;6.82;2.47;;;17.20;72.60;;;;;;2564943;53;21314;-71
2021/11/09 14:01:59;;;;;;;5.75;2.30;;;17.20;71.50;;;;;;2588239;53;20958;-71
2021/11/09 14:05:11;;;;;;;5.70;2.80;;;17.20;71.10;;;;;;2341818;54;20937;-71
2021/11/09 14:07:51;;;;;;;5.72;2.45;;;17.20;69.80;;;;;;2560669;53;20977;-68
2021/11/09 14:16:17;;;;;;;15.40;8.27;;;17.00;70.40;;;;;;2569720;53;20993;-69
2021/11/09 14:18:47;;;;;;;9.68;4.12;;;16.80;71.20;;;;;;2574968;53;20954;-69
2021/11/09 14:21:13;;;;;;;7.45;3.22;;;16.80;70.60;;;;;;2564982;53;21476;-69
2021/11/09 14:23:42;;;;;;;5.70;3.20;;;16.70;70.60;;;;;;2319109;54;20989;-69
2021/11/09 14:27:13;;;;;;;8.75;3.45;;;16.60;70.50;;;;;;2588302;53;20945;-69
2021/11/09 14:30:02;;;;;;;7.35;2.37;;;16.50;68.00;;;;;;2322444;55;21816;-69
2021/11/09 14:32:33;;;;;;;7.30;2.75;;;16.40;68.20;;;;;;2588814;53;20945;-69
2021/11/09 14:35:21;;;;;;;6.22;2.20;;;16.40;70.10;;;;;;2578739;53;21477;-69
2021/11/09 14:38:10;;;;;;;6.07;2.22;;;16.30;68.60;;;;;;2575857;53;20936;-69
2021/11/09 14:41:12;;;;;;;4.75;2.12;;;16.20;68.30;;;;;;2341338;54;21065;-71
2021/11/09 14:43:41;;;;;;;3.60;1.77;;;16.10;69.20;;;;;;2574731;53;21893;-71
2021/11/09 14:46:12;;;;;;;6.28;1.95;;;16.00;69.60;;;;;;2342173;54;20925;-71
2021/11/09 14:51:31;;;;;;;4.93;1.92;;;15.80;69.30;;;;;;2342273;54;20934;-71
2021/11/09 14:54:18;;;;;;;6.70;2.72;;;15.70;69.20;;;;;;2587878;53;20957;-70
2021/11/09 14:56:44;;;;;;;5.45;2.62;;;15.70;69.10;;;;;;2323111;55;20918;-71
2021/11/09 14:59:14;;;;;;;4.18;2.10;;;15.50;69.00;;;;;;2562834;53;20917;-71
2021/11/09 15:02:00;;;;;;;5.15;2.20;;;15.40;68.50;;;;;;2329593;54;20985;-70
2021/11/09 15:04:47;;;;;;;4.30;2.17;;;15.40;68.30;;;;;;2585612;53;21520;-71
2021/11/09 15:07:56;;;;;;;6.12;2.17;;;15.20;68.30;;;;;;2328283;54;21064;-70
2021/11/09 15:13:36;;;;;;;4.72;1.90;;;15.00;69.10;;;;;;2588373;53;20962;-71
2021/11/09 15:29:56;;;;;;;5.57;2.67;;;14.60;69.20;;;;;;2323121;55;20957;-70
2021/11/09 15:32:29;;;;;;;9.52;3.20;;;14.50;69.20;;;;;;2560274;53;20945;-70
2021/11/09 15:35:18;;;;;;;8.13;3.65;;;14.40;69.10;;;;;;2342063;54;21406;-70
2021/11/09 15:37:50;;;;;;;7.80;4.20;;;14.30;68.90;;;;;;2559117;53;20989;-70
2021/11/09 15:40:20;;;;;;;;;;;14.30;68.60;;;;;;2344445;54;20946;-70
2021/11/09 15:42:47;;;;;;;4.50;2.25;;;14.20;66.70;;;;;;2570401;53;20082;-70
2021/11/09 15:45:13;;;;;;;6.47;2.55;;;14.10;68.10;;;;;;2329549;54;20996;-71
2021/11/09 15:47:39;;;;;;;8.82;3.25;;;13.90;67.70;;;;;;2341817;54;20961;-70
2021/11/09 15:50:06;;;;;;;8.48;3.65;;;13.80;67.50;;;;;;2326677;54;21000;-70
2021/11/09 15:52:33;;;;;;;7.50;3.53;;;13.70;67.30;;;;;;2585348;53;21394;-70
2021/11/09 15:55:00;;;;;;;7.97;4.10;;;13.60;67.30;;;;;;2338480;54;21011;-70
2021/11/09 15:57:26;;;;;;;12.27;4.65;;;13.60;67.30;;;;;;2325024;54;20949;-70
2021/11/09 15:59:55;;;;;;;9.57;4.32;;;13.40;67.20;;;;;;2328297;54;20944;-71
2021/11/09 16:02:22;;;;;;;8.60;3.80;;;13.30;67.10;;;;;;2317042;55;21708;-70
2021/11/09 16:04:49;;;;;;;6.43;3.15;;;13.20;67.00;;;;;;2341751;54;20929;-69
2021/11/09 16:07:17;;;;;;;7.05;2.37;;;13.00;66.90;;;;;;2323744;54;20956;-70
2021/11/09 16:09:47;;;;;;;5.43;2.22;;;12.90;66.90;;;;;;2322033;54;21477;-70
2021/11/09 16:12:17;;;;;;;6.37;2.30;;;12.80;67.00;;;;;;2588397;53;21362;-70
2021/11/09 16:14:44;;;;;;;6.40;2.40;;;12.80;67.10;;;;;;2336334;54;21095;-69
2021/11/09 16:17:11;;;;;;;3.90;1.60;;;12.60;67.00;;;;;;2571385;53;21885;-70
2021/11/09 16:19:38;;;;;;;3.78;1.70;;;12.50;67.10;;;;;;2341790;54;21095;-69